createdAt,value
2022-09-12T00:02:15.154Z,100884.22
2022-09-12T00:04:50.872Z,100881.09
2022-09-12T00:07:18.958Z,100872.91
2022-09-12T00:09:49.658Z,100871.50
2022-09-12T00:12:22.924Z,100880.66
2022-09-12T00:14:56.380Z,100884.41
2022-09-12T00:17:32.626Z,100878.66
2022-09-12T00:20:07.430Z,100868.84
2022-09-12T00:22:41.459Z,100872.78
2022-09-12T00:25:17.305Z,100876.47
2022-09-12T00:27:47.470Z,100872.50
2022-09-12T00:30:19.960Z,100874.44
2022-09-12T00:32:48.059Z,100875.81
2022-09-12T00:35:18.533Z,100860.75
2022-09-12T00:37:45.981Z,100867.44
2022-09-12T00:40:16.445Z,100866.19
2022-09-12T00:42:48.857Z,100859.66
2022-09-12T00:45:28.447Z,100869.25
2022-09-12T00:47:56.873Z,100869.91
2022-09-12T00:50:24.807Z,100864.31
2022-09-12T00:53:07.371Z,100861.38
2022-09-12T00:55:36.996Z,100862.25
2022-09-12T00:58:09.750Z,100860.50
2022-09-12T01:00:36.897Z,100863.22
2022-09-12T01:03:14.802Z,100863.06
2022-09-12T01:05:47.017Z,100863.00
2022-09-12T01:08:13.831Z,100861.53
2022-09-12T01:10:41.057Z,100864.81
2022-09-12T01:13:09.284Z,100857.38
2022-09-12T01:15:40.025Z,100862.91
2022-09-12T01:18:28.430Z,100866.78
2022-09-12T01:21:07.116Z,100864.03
2022-09-12T01:23:55.101Z,100864.13
2022-09-12T01:26:40.100Z,100876.31
2022-09-12T01:29:25.399Z,100868.75
2022-09-12T01:32:24.118Z,100873.00
2022-09-12T01:35:02.688Z,100877.16
2022-09-12T01:37:34.290Z,100868.94
2022-09-12T01:40:14.747Z,100876.09
2022-09-12T01:43:21.347Z,100870.09
2022-09-12T01:45:57.037Z,100870.13
2022-09-12T01:48:31.315Z,100868.63
2022-09-12T01:51:14.028Z,100868.63
2022-09-12T01:53:51.549Z,100857.41
2022-09-12T01:56:26.879Z,100854.97
2022-09-12T01:59:04.020Z,100855.50
2022-09-12T02:01:42.023Z,100851.78
2022-09-12T02:04:34.226Z,100858.72
2022-09-12T02:07:11.029Z,100850.38
2022-09-12T02:09:47.731Z,100866.47
2022-09-12T02:12:17.618Z,100858.91
2022-09-12T02:14:52.143Z,100859.56
2022-09-12T02:17:21.604Z,100864.22
2022-09-12T02:20:14.594Z,100873.94
2022-09-12T02:22:48.658Z,100869.78
2022-09-12T02:25:18.192Z,100860.28
2022-09-12T02:27:48.378Z,100860.81
2022-09-12T02:30:19.635Z,100855.59
2022-09-12T02:33:01.830Z,100859.09
2022-09-12T02:35:50.293Z,100854.91
2022-09-12T02:38:37.159Z,100856.94
2022-09-12T02:41:04.105Z,100860.22
2022-09-12T02:43:33.713Z,100855.31
2022-09-12T02:46:09.381Z,100850.94
2022-09-12T02:48:45.384Z,100853.00
2022-09-12T02:51:20.305Z,100856.94
2022-09-12T02:53:51.949Z,100850.25
2022-09-12T02:56:30.281Z,100853.69
2022-09-12T02:59:08.002Z,100856.44
2022-09-12T03:01:57.582Z,100858.56
2022-09-12T03:04:30.309Z,100857.69
2022-09-12T03:07:18.680Z,100856.09
2022-09-12T03:10:01.546Z,100856.59
2022-09-12T03:13:05.007Z,100850.00
2022-09-12T03:16:04.242Z,100851.06
2022-09-12T03:18:45.839Z,100857.75
2022-09-12T03:21:26.534Z,100863.59
2022-09-12T03:24:16.641Z,100849.94
2022-09-12T03:26:48.120Z,100853.66
2022-09-12T03:29:15.493Z,100855.72
2022-09-12T03:31:50.117Z,100857.63
2022-09-12T03:34:16.881Z,100852.72
2022-09-12T03:36:43.540Z,100858.31
2022-09-12T03:39:10.187Z,100860.41
2022-09-12T03:41:36.919Z,100856.41
2022-09-12T03:44:04.703Z,100860.03
2022-09-12T03:46:31.365Z,100860.63
2022-09-12T03:48:58.176Z,100856.44
2022-09-12T03:51:24.883Z,100858.47
2022-09-12T03:53:51.681Z,100863.31
2022-09-12T03:56:19.474Z,100864.44
2022-09-12T03:58:46.475Z,100858.72
2022-09-12T04:01:15.915Z,100866.34
2022-09-12T04:03:44.160Z,100870.25
2022-09-12T04:06:13.339Z,100871.19
2022-09-12T04:08:40.311Z,100865.09
2022-09-12T04:11:15.006Z,100864.16
2022-09-12T04:13:43.372Z,100862.44
2022-09-12T04:16:10.835Z,100868.91
2022-09-12T04:18:37.574Z,100868.91
2022-09-12T04:21:07.077Z,100862.28
2022-09-12T04:23:33.968Z,100866.06
2022-09-12T04:26:02.280Z,100880.13
2022-09-12T04:28:30.109Z,100877.34
2022-09-12T04:30:57.531Z,100870.88
2022-09-12T04:33:24.265Z,100868.22
2022-09-12T04:35:50.960Z,100869.72
2022-09-12T04:38:17.620Z,100861.84
2022-09-12T04:40:44.285Z,100873.53
2022-09-12T04:43:14.422Z,100866.09
2022-09-12T04:45:41.494Z,100864.88
2022-09-12T04:48:08.152Z,100868.59
2022-09-12T04:50:34.784Z,100862.75
2022-09-12T04:53:01.555Z,100870.34
2022-09-12T04:55:28.234Z,100866.25
2022-09-12T04:57:54.960Z,100858.50
2022-09-12T05:00:21.847Z,100865.94
2022-09-12T05:02:48.566Z,100868.97
2022-09-12T05:05:15.373Z,100869.50
2022-09-12T05:12:03.170Z,100867.53
2022-09-12T05:14:25.615Z,100867.66
2022-09-12T05:16:52.247Z,100868.22
2022-09-12T05:19:18.888Z,100878.47
2022-09-12T05:21:45.532Z,100884.94
2022-09-12T05:24:12.194Z,100886.47
2022-09-12T05:26:38.865Z,100874.09
2022-09-12T05:29:07.183Z,100885.97
2022-09-12T05:31:34.036Z,100883.59
2022-09-12T05:34:00.694Z,100880.72
2022-09-12T05:36:30.615Z,100885.75
2022-09-12T05:38:57.247Z,100886.97
2022-09-12T05:41:32.983Z,100879.25
2022-09-12T05:44:05.355Z,100878.19
2022-09-12T05:46:37.183Z,100887.34
2022-09-12T05:49:05.722Z,100892.19
2022-09-12T05:51:34.729Z,100899.22
2022-09-12T05:54:03.442Z,100898.16
2022-09-12T05:56:32.295Z,100900.34
2022-09-12T05:59:04.138Z,100909.06
2022-09-12T06:01:32.199Z,100905.03
2022-09-12T06:04:02.715Z,100906.31
2022-09-12T06:06:30.419Z,100898.78
2022-09-12T06:09:00.649Z,100904.91
2022-09-12T06:11:29.692Z,100900.28
2022-09-12T06:13:57.951Z,100914.72
2022-09-12T06:16:27.065Z,100904.91
2022-09-12T06:18:57.790Z,100914.50
2022-09-12T06:21:26.596Z,100914.53
2022-09-12T06:23:55.186Z,100911.53
2022-09-12T06:26:23.607Z,100911.53
2022-09-12T06:28:50.656Z,100917.59
2022-09-12T06:31:20.913Z,100910.72
2022-09-12T06:33:50.317Z,100917.09
2022-09-12T06:36:19.746Z,100925.09
2022-09-12T06:38:46.530Z,100918.00
2022-09-12T06:41:13.755Z,100927.44
2022-09-12T06:43:41.529Z,100935.66
2022-09-12T06:46:09.656Z,100934.69
2022-09-12T06:48:41.590Z,100924.66
2022-09-12T06:51:17.320Z,100928.34
2022-09-12T06:53:44.824Z,100933.69
2022-09-12T06:56:14.055Z,100935.50
2022-09-12T06:58:41.841Z,100929.13
2022-09-12T07:01:14.259Z,100924.13
2022-09-12T07:03:41.825Z,100924.63
2022-09-12T07:06:11.048Z,100923.47
2022-09-12T07:08:38.594Z,100924.22
2022-09-12T07:11:26.188Z,100926.59
2022-09-12T07:13:56.145Z,100928.63
2022-09-12T07:16:23.821Z,100914.09
2022-09-12T07:18:52.514Z,100917.50
2022-09-12T07:21:19.604Z,100915.56
2022-09-12T07:23:46.971Z,100915.09
2022-09-12T07:26:15.015Z,100914.75
2022-09-12T07:28:42.022Z,100915.84
2022-09-12T07:31:14.502Z,100920.34
2022-09-12T07:33:42.121Z,100918.53
2022-09-12T07:36:12.330Z,100914.03
2022-09-12T07:38:39.566Z,100909.03
2022-09-12T07:41:23.702Z,100912.56
2022-09-12T07:43:54.897Z,100903.53
2022-09-12T07:46:22.542Z,100912.44
2022-09-12T07:48:50.211Z,100908.28
2022-09-12T07:51:17.538Z,100907.03
2022-09-12T07:53:44.343Z,100911.44
2022-09-12T07:56:12.202Z,100904.47
2022-09-12T07:58:43.294Z,100919.94
2022-09-12T08:01:13.981Z,100920.91
2022-09-12T08:03:41.218Z,100923.91
2022-09-12T08:06:14.055Z,100920.13
2022-09-12T08:08:41.220Z,100924.03
2022-09-12T08:11:10.505Z,100923.13
2022-09-12T08:13:38.405Z,100920.28
2022-09-12T08:16:08.227Z,100919.56
2022-09-12T08:18:36.447Z,100923.84
2022-09-12T08:21:08.421Z,100920.28
2022-09-12T08:23:35.160Z,100919.50
2022-09-12T08:26:06.368Z,100914.78
2022-09-12T08:28:35.115Z,100914.09
2022-09-12T08:31:03.379Z,100919.19
2022-09-12T08:33:33.753Z,100916.50
2022-09-12T08:36:10.423Z,100924.63
2022-09-12T08:38:38.853Z,100926.06
2022-09-12T08:41:15.377Z,100924.03
2022-09-12T08:44:03.359Z,100933.38
2022-09-12T08:47:04.192Z,100931.50
2022-09-12T08:49:36.999Z,100932.72
2022-09-12T08:52:09.852Z,100932.13
2022-09-12T08:54:36.570Z,100931.66
2022-09-12T08:57:04.719Z,100932.53
2022-09-12T08:59:37.014Z,100925.53
2022-09-12T09:02:13.854Z,100914.22
2022-09-12T09:04:51.616Z,100920.63
2022-09-12T09:07:50.341Z,100917.22
2022-09-12T09:10:32.729Z,100918.31
2022-09-12T09:13:40.809Z,100916.72
2022-09-12T09:16:13.894Z,100910.75
2022-09-12T09:18:45.919Z,100910.66
2022-09-12T09:21:21.942Z,100912.38
2022-09-12T09:23:53.012Z,100912.97
2022-09-12T09:26:26.672Z,100908.13
2022-09-12T09:29:06.563Z,100914.22
2022-09-12T09:31:38.113Z,100914.31
2022-09-12T09:34:14.769Z,100899.91
2022-09-12T09:37:07.230Z,100907.28
2022-09-12T09:39:52.432Z,100907.13
2022-09-12T09:42:41.944Z,100907.41
2022-09-12T09:45:17.544Z,100899.53
2022-09-12T09:47:47.158Z,100899.00
2022-09-12T09:50:16.933Z,100896.63
2022-09-12T09:52:44.006Z,100905.25
2022-09-12T09:55:17.661Z,100901.28
2022-09-12T09:57:45.594Z,100900.00
2022-09-12T10:00:32.237Z,100899.28
2022-09-12T10:03:13.935Z,100893.34
2022-09-12T10:05:51.430Z,100889.38
2022-09-12T10:08:26.760Z,100897.19
2022-09-12T10:11:07.584Z,100893.78
2022-09-12T10:13:35.792Z,100888.97
2022-09-12T10:16:06.174Z,100889.88
2022-09-12T10:18:43.024Z,100884.09
2022-09-12T10:21:15.543Z,100889.13
2022-09-12T10:23:42.486Z,100890.53
2022-09-12T10:26:11.492Z,100882.38
2022-09-12T10:28:49.733Z,100884.03
2022-09-12T10:31:29.026Z,100878.03
2022-09-12T10:33:59.981Z,100879.06
2022-09-12T10:36:36.015Z,100882.72
2022-09-12T10:39:02.891Z,100881.69
2022-09-12T10:41:37.229Z,100872.84
2022-09-12T10:44:09.981Z,100880.50
2022-09-12T10:46:36.656Z,100872.81
2022-09-12T10:49:14.095Z,100877.09
2022-09-12T10:51:40.841Z,100874.63
2022-09-12T10:54:10.444Z,100867.47
2022-09-12T10:57:02.128Z,100868.00
2022-09-12T10:59:41.207Z,100865.84
2022-09-12T11:02:31.156Z,100863.38
2022-09-12T11:05:37.394Z,100862.69
2022-09-12T11:08:29.407Z,100861.44
2022-09-12T11:11:39.259Z,100862.97
2022-09-12T11:14:54.162Z,100863.94
2022-09-12T11:17:54.858Z,100866.22
2022-09-12T11:20:30.541Z,100866.75
2022-09-12T11:23:25.082Z,100853.31
2022-09-12T11:26:19.265Z,100863.50
2022-09-12T11:29:16.132Z,100864.59
2022-09-12T11:31:55.663Z,100865.53
2022-09-12T11:34:53.474Z,100862.81
2022-09-12T11:37:43.760Z,100866.94
2022-09-12T11:40:20.597Z,100862.06
2022-09-12T11:42:49.817Z,100859.97
2022-09-12T11:45:23.462Z,100860.88
2022-09-12T11:47:53.849Z,100857.28
2022-09-12T11:50:26.406Z,100850.41
2022-09-12T11:52:58.206Z,100853.88
2022-09-12T11:55:28.382Z,100858.41
2022-09-12T11:57:56.723Z,100856.31
2022-09-12T12:00:28.077Z,100855.19
2022-09-12T12:03:14.312Z,100846.06
2022-09-12T12:06:06.242Z,100845.50
2022-09-12T12:08:38.518Z,100836.25
2022-09-12T12:11:08.157Z,100840.16
2022-09-12T12:13:39.426Z,100826.63
2022-09-12T12:16:25.362Z,100827.19
2022-09-12T12:18:59.343Z,100830.41
2022-09-12T12:21:32.137Z,100820.34
2022-09-12T12:24:08.014Z,100821.16
2022-09-12T12:26:44.481Z,100814.84
2022-09-12T12:29:17.219Z,100813.31
2022-09-12T12:31:59.281Z,100813.03
2022-09-12T12:34:29.931Z,100805.94
2022-09-12T12:36:56.789Z,100813.50
2022-09-12T12:39:43.487Z,100804.56
2022-09-12T12:42:10.337Z,100804.59
2022-09-12T12:44:47.339Z,100803.59
2022-09-12T12:47:20.348Z,100801.97
2022-09-12T12:50:10.445Z,100810.78
2022-09-12T12:52:47.686Z,100811.50
2022-09-12T12:55:22.926Z,100817.13
2022-09-12T12:57:51.374Z,100817.00
2022-09-12T13:00:21.120Z,100804.00
2022-09-12T13:03:02.118Z,100801.47
2022-09-12T13:05:31.402Z,100810.06
2022-09-12T13:08:10.233Z,100808.53
2022-09-12T13:10:37.117Z,100806.72
2022-09-12T13:13:07.033Z,100803.16
2022-09-12T13:15:36.797Z,100800.59
2022-09-12T13:18:11.442Z,100787.06
2022-09-12T13:20:48.426Z,100793.50
2022-09-12T13:23:26.319Z,100791.22
2022-09-12T13:25:55.463Z,100793.03
2022-09-12T13:28:22.342Z,100786.34
2022-09-12T13:30:58.600Z,100796.13
2022-09-12T13:33:39.781Z,100785.69
2022-09-12T13:36:13.543Z,100786.59
2022-09-12T13:39:08.639Z,100779.63
2022-09-12T13:42:03.295Z,100777.09
2022-09-12T13:44:31.173Z,100775.19
2022-09-12T13:47:00.505Z,100773.81
2022-09-12T13:49:35.283Z,100762.53
2022-09-12T13:52:04.312Z,100767.13
2022-09-12T13:54:31.486Z,100772.84
2022-09-12T13:56:59.816Z,100769.16
2022-09-12T13:59:26.530Z,100767.47
2022-09-12T14:01:53.231Z,100774.19
2022-09-12T14:04:41.277Z,100772.50
2022-09-12T14:07:20.326Z,100769.47
2022-09-12T14:09:57.127Z,100761.91
2022-09-12T14:12:34.287Z,100764.59
2022-09-12T14:15:01.428Z,100762.72
2022-09-12T14:17:36.210Z,100761.56
2022-09-12T14:20:08.986Z,100760.84
2022-09-12T14:22:36.464Z,100759.84
2022-09-12T14:25:04.053Z,100759.84
2022-09-12T14:27:41.341Z,100755.38
2022-09-12T14:30:19.115Z,100756.44
2022-09-12T14:33:11.492Z,100758.97
2022-09-12T14:35:43.115Z,100750.50
2022-09-12T14:38:10.138Z,100752.19
2022-09-12T14:40:48.591Z,100753.56
2022-09-12T14:43:21.806Z,100751.38
2022-09-12T14:45:59.797Z,100748.88
2022-09-12T14:48:29.330Z,100747.00
2022-09-12T14:50:56.016Z,100748.00
2022-09-12T14:53:37.382Z,100745.63
2022-09-12T14:56:12.515Z,100743.72
2022-09-12T14:58:40.717Z,100742.38
2022-09-12T15:01:07.394Z,100746.41
2022-09-12T15:03:51.926Z,100744.00
2022-09-12T15:06:30.826Z,100739.13
2022-09-12T15:09:00.463Z,100736.63
2022-09-12T15:11:27.106Z,100732.88
2022-09-12T15:13:54.562Z,100732.06
2022-09-12T15:16:21.336Z,100730.53
2022-09-12T15:18:48.020Z,100728.50
2022-09-12T15:21:17.889Z,100723.56
2022-09-12T15:23:46.241Z,100733.25
2022-09-12T15:26:15.335Z,100731.19
2022-09-12T15:28:42.049Z,100733.03
2022-09-12T15:31:16.133Z,100734.03
2022-09-12T15:33:42.905Z,100724.59
2022-09-12T15:36:15.528Z,100722.16
2022-09-12T15:38:42.787Z,100728.50
2022-09-12T15:41:15.564Z,100728.28
2022-09-12T15:43:42.398Z,100731.25
2022-09-12T15:46:13.465Z,100714.16
2022-09-12T15:48:40.424Z,100718.72
2022-09-12T15:51:15.774Z,100719.81
2022-09-12T15:53:43.140Z,100708.00
2022-09-12T15:56:10.182Z,100718.19
2022-09-12T15:58:49.756Z,100712.25
2022-09-12T16:01:24.497Z,100712.94
2022-09-12T16:03:51.201Z,100714.16
2022-09-12T16:06:17.937Z,100712.13
2022-09-12T16:08:44.809Z,100711.28
2022-09-12T16:11:23.034Z,100712.63
2022-09-12T16:13:51.986Z,100704.91
2022-09-12T16:16:18.758Z,100700.22
2022-09-12T16:18:45.640Z,100713.38
2022-09-12T16:21:15.527Z,100704.91
2022-09-12T16:23:47.183Z,100703.25
2022-09-12T16:26:14.436Z,100703.53
2022-09-12T16:28:41.414Z,100694.38
2022-09-12T16:31:11.299Z,100693.53
2022-09-12T16:33:39.123Z,100689.44
2022-09-12T16:36:11.577Z,100685.06
2022-09-12T16:38:46.935Z,100690.41
2022-09-12T16:41:17.921Z,100682.63
2022-09-12T16:43:45.801Z,100690.56
2022-09-12T16:46:16.660Z,100683.09
2022-09-12T16:48:52.675Z,100682.03
2022-09-12T16:51:21.947Z,100686.03
2022-09-12T16:53:49.410Z,100680.44
2022-09-12T16:56:22.707Z,100678.88
2022-09-12T16:58:50.792Z,100676.13
2022-09-12T17:01:20.358Z,100685.19
2022-09-12T17:03:47.700Z,100676.03
2022-09-12T17:06:16.898Z,100671.94
2022-09-12T17:08:49.529Z,100670.56
2022-09-12T17:11:22.067Z,100663.13
2022-09-12T17:14:04.289Z,100665.25
2022-09-12T17:16:35.921Z,100664.56
2022-09-12T17:19:03.234Z,100656.91
2022-09-12T17:21:30.203Z,100653.00
2022-09-12T17:23:56.912Z,100656.72
2022-09-12T17:26:23.631Z,100656.50
2022-09-12T17:28:50.676Z,100665.03
2022-09-12T17:31:17.487Z,100655.72
2022-09-12T17:33:44.226Z,100659.16
2022-09-12T17:36:15.206Z,100658.59
2022-09-12T17:38:43.604Z,100657.22
2022-09-12T17:41:18.904Z,100657.66
2022-09-12T17:43:47.503Z,100655.25
2022-09-12T17:46:14.712Z,100651.34
2022-09-12T17:48:41.858Z,100654.44
2022-09-12T17:51:13.751Z,100652.38
2022-09-12T17:53:41.515Z,100657.94
2022-09-12T17:56:09.380Z,100656.06
2022-09-12T17:58:38.613Z,100653.53
2022-09-12T18:01:26.475Z,100663.63
2022-09-12T18:03:56.815Z,100661.66
2022-09-12T18:06:24.519Z,100666.75
2022-09-12T18:08:51.241Z,100668.56
2022-09-12T18:11:18.186Z,100669.84
2022-09-12T18:13:46.314Z,100665.59
2022-09-12T18:16:13.925Z,100667.59
2022-09-12T18:18:41.076Z,100670.03
2022-09-12T18:21:09.110Z,100672.72
2022-09-12T18:23:35.797Z,100673.31
2022-09-12T18:26:04.710Z,100674.72
2022-09-12T18:28:35.578Z,100672.47
2022-09-12T18:31:02.563Z,100660.00
2022-09-12T18:33:29.233Z,100670.75
2022-09-12T18:35:55.907Z,100672.63
2022-09-12T18:38:22.797Z,100660.03
2022-09-12T18:40:49.742Z,100666.41
2022-09-12T18:43:16.690Z,100654.38
2022-09-12T18:45:43.350Z,100654.09
2022-09-12T18:48:10.399Z,100657.06
2022-09-12T18:50:37.039Z,100656.38
2022-09-12T18:53:03.673Z,100650.13
2022-09-12T18:55:30.883Z,100647.59
2022-09-12T18:57:58.956Z,100654.97
2022-09-12T19:00:26.010Z,100656.06
2022-09-12T19:02:53.060Z,100659.75
2022-09-12T19:05:19.794Z,100650.41
2022-09-12T19:07:46.732Z,100642.78
2022-09-12T19:10:13.460Z,100641.50
2022-09-12T19:12:40.200Z,100637.63
2022-09-12T19:15:09.844Z,100630.84
2022-09-12T19:17:36.824Z,100631.53
2022-09-12T19:20:05.875Z,100629.97
2022-09-12T19:22:32.594Z,100621.47
2022-09-12T19:24:59.214Z,100619.78
2022-09-12T19:27:25.943Z,100628.78
2022-09-12T19:29:53.169Z,100626.94
2022-09-12T19:32:20.113Z,100630.34
2022-09-12T19:34:46.833Z,100630.34
2022-09-12T19:37:13.491Z,100613.94
2022-09-12T19:39:44.441Z,100617.47
2022-09-12T19:42:11.983Z,100619.84
2022-09-12T19:44:38.881Z,100620.69
2022-09-12T19:47:05.571Z,100616.28
2022-09-12T19:49:32.442Z,100613.91
2022-09-12T19:52:00.448Z,100615.44
2022-09-12T19:54:27.371Z,100613.13
2022-09-12T19:56:54.391Z,100614.00
2022-09-12T19:59:21.104Z,100604.50
2022-09-12T20:01:47.821Z,100602.25
2022-09-12T20:04:14.854Z,100605.22
2022-09-12T20:06:41.843Z,100606.03
2022-09-12T20:09:09.146Z,100603.53
2022-09-12T20:11:35.815Z,100598.06
2022-09-12T20:14:02.611Z,100596.34
2022-09-12T20:16:30.155Z,100597.97
2022-09-12T20:18:59.271Z,100593.00
2022-09-12T20:21:31.905Z,100590.59
2022-09-12T20:24:03.082Z,100593.91
2022-09-12T20:26:29.855Z,100583.41
2022-09-12T20:28:56.539Z,100583.34
2022-09-12T20:31:23.445Z,100594.31
2022-09-12T20:33:52.061Z,100587.97
2022-09-12T20:36:20.240Z,100586.16
2022-09-12T20:38:52.075Z,100588.09
2022-09-12T20:41:22.210Z,100587.25
2022-09-12T20:43:50.264Z,100583.63
2022-09-12T20:46:21.416Z,100584.59
2022-09-12T20:48:48.731Z,100580.06
2022-09-12T20:51:15.458Z,100584.50
2022-09-12T20:53:42.156Z,100581.31
2022-09-12T20:56:08.835Z,100585.09
2022-09-12T20:58:36.868Z,100574.25
2022-09-12T21:01:11.498Z,100566.81
2022-09-12T21:03:39.120Z,100571.53
2022-09-12T21:06:07.029Z,100570.69
2022-09-12T21:08:34.673Z,100568.25
2022-09-12T21:11:01.895Z,100568.56
2022-09-12T21:13:28.642Z,100562.88
2022-09-12T21:16:03.457Z,100564.47
2022-09-12T21:18:30.756Z,100567.28
2022-09-12T21:20:57.800Z,100567.88
2022-09-12T21:23:25.599Z,100561.91
2022-09-12T21:25:52.901Z,100562.44
2022-09-12T21:28:20.616Z,100559.88
2022-09-12T21:30:48.664Z,100562.19
2022-09-12T21:33:15.559Z,100566.34
2022-09-12T21:35:42.240Z,100553.69
2022-09-12T21:38:09.419Z,100556.75
2022-09-12T21:40:36.139Z,100551.06
2022-09-12T21:43:03.389Z,100556.19
2022-09-12T21:45:30.116Z,100547.63
2022-09-12T21:48:00.380Z,100547.63
2022-09-12T21:50:27.006Z,100549.81
2022-09-12T21:52:53.660Z,100548.84
2022-09-12T21:55:20.403Z,100549.69
2022-09-12T21:57:47.083Z,100539.25
2022-09-12T22:00:16.158Z,100544.78
2022-09-12T22:02:43.399Z,100535.34
2022-09-12T22:05:10.505Z,100533.31
2022-09-12T22:07:37.552Z,100530.19
2022-09-12T22:10:05.054Z,100536.06
2022-09-12T22:12:34.464Z,100525.94
2022-09-12T22:15:12.790Z,100521.16
2022-09-12T22:17:48.149Z,100519.34
2022-09-12T22:20:15.007Z,100516.69
2022-09-12T22:23:00.544Z,100512.16
2022-09-12T22:25:27.235Z,100509.34
2022-09-12T22:27:54.391Z,100506.22
2022-09-12T22:30:22.093Z,100506.13
2022-09-12T22:32:50.096Z,100495.97
2022-09-12T22:35:17.518Z,100496.63
2022-09-12T22:37:44.667Z,100494.06
2022-09-12T22:40:12.060Z,100483.50
2022-09-12T22:42:39.067Z,100484.09
2022-09-12T22:45:07.323Z,100482.66
2022-09-12T22:47:34.212Z,100481.88
2022-09-12T22:50:00.865Z,100475.53
2022-09-12T22:52:27.528Z,100469.34
2022-09-12T22:54:54.218Z,100463.72
2022-09-12T22:57:20.891Z,100463.16
2022-09-12T22:59:47.570Z,100461.44
2022-09-12T23:02:14.389Z,100447.34
2022-09-12T23:04:41.027Z,100446.50
2022-09-12T23:07:07.695Z,100440.41
2022-09-12T23:09:35.566Z,100442.25
2022-09-12T23:12:02.914Z,100438.19
2022-09-12T23:14:29.581Z,100437.50
2022-09-12T23:16:56.306Z,100433.84
2022-09-12T23:19:22.958Z,100431.88
2022-09-12T23:21:49.601Z,100430.63
2022-09-12T23:24:16.368Z,100425.81
2022-09-12T23:26:43.307Z,100428.75
2022-09-12T23:29:09.980Z,100429.53
2022-09-12T23:31:36.758Z,100428.16
2022-09-12T23:34:06.016Z,100424.63
2022-09-12T23:36:33.653Z,100424.91
2022-09-12T23:39:00.757Z,100419.69
2022-09-12T23:41:27.863Z,100427.31
2022-09-12T23:43:54.523Z,100416.16
2022-09-12T23:46:21.391Z,100417.81
2022-09-12T23:48:48.311Z,100408.13
2022-09-12T23:51:15.438Z,100419.16
2022-09-12T23:54:00.803Z,100411.25
2022-09-12T23:56:27.471Z,100411.91
2022-09-12T23:58:54.132Z,100411.06
